MSC Jordan — HPMK — position and weather

sailwx.info

Track history (hours):
 
Tides and Currents Weather Stations Pressure Air Temp Water Temp Dewpoint Dewpoint Depression Visibility Wind Speed Wind Dir Waves Ship Positions

MSC Jordan

Last reported at 2015-Jun-26 03:10 UTC. Time now 2015-Jul-04 17:04 UTC.
Position N 27°40' W 015°19'.
Warning: this ship's position is 8 days out of date.

Length 237 m; draft 11.6 m.

Type: Ship. MMSI: 355194000.

Date/timePositionNaut miles runAvg speedWind from/ knotsBaromVisibWave heightAir tempDewpointWater temp
2015-Jun-26 03:10N 27°40' W 015°19'1017.1
2015-Jun-26 02:33N 27°50' W 015°16'1515.1
2015-Jun-26 01:33N 28°04' W 015°20'5 5.4
2015-Jun-26 00:33N 28°08' W 015°25'0 0.0
2015-Jun-25 23:33N 28°08' W 015°25'0 0.0
2015-Jun-25 22:33N 28°08' W 015°25'0 0.0
2015-Jun-25 21:33N 28°08' W 015°25'0 0.0
2015-Jun-25 20:33N 28°08' W 015°25'0 0.0
2015-Jun-25 19:33N 28°08' W 015°25'0 0.0
2015-Jun-25 18:33N 28°08' W 015°25'0 0.0
2015-Jun-25 17:33N 28°08' W 015°25'0 0.0
2015-Jun-25 16:33N 28°08' W 015°25'0 0.0
2015-Jun-25 15:33N 28°08' W 015°25'0 0.0
2015-Jun-25 14:33N 28°08' W 015°25'0 0.0
2015-Jun-25 13:33N 28°08' W 015°25'0 0.0
2015-Jun-25 12:33N 28°08' W 015°25'0 0.0
2015-Jun-25 11:33N 28°08' W 015°25'0 0.0
2015-Jun-25 10:33N 28°08' W 015°25'0 0.0
2015-Jun-25 09:33N 28°08' W 015°25'0 0.0
2015-Jun-25 08:33N 28°08' W 015°25'0 0.0
2015-Jun-25 07:33N 28°08' W 015°25'0 0.0
2015-Jun-25 06:33N 28°08' W 015°25'0 0.1
2015-Jun-25 05:33N 28°08' W 015°25'4 4.2
2015-Jun-25 04:33N 28°08' W 015°20'1514.8
2015-Jun-25 03:33N 28°22' W 015°15'1515.4
2015-Jun-25 02:33N 28°37' W 015°11'1515.2
2015-Jun-25 01:33N 28°51' W 015°06'1515.1
2015-Jun-25 00:33N 29°06' W 015°01'1515.2
2015-Jun-24 23:32N 29°21' W 014°56'1515.2
2015-Jun-24 22:33N 29°35' W 014°52'1515.5
2015-Jun-24 21:33N 29°50' W 014°47'2015.5
2015-Jun-24 20:16N 30°09' W 014°40'72814.6
2015-Jun-22 18:19N 41°49' W 010°31'28813.7
2015-Jun-21 21:21N 46°14' W 007°57'911.7
2015-Jun-21 20:33N 46°22' W 007°51'1211.7
2015-Jun-21 19:33N 46°33' W 007°42'1211.9
2015-Jun-21 18:33N 46°43' W 007°34'1212.1
2015-Jun-21 17:33N 46°54' W 007°26'4113.6
2015-Jun-21 14:33N 47°30' W 006°57'3615.8
2015-Jun-21 12:17N 48°00' W 006°30'23911.4
2015-Jun-20 15:24N 49°46' W 001°04'1416.8
2015-Jun-20 14:33N 49°40' W 000°43'1615.6
2015-Jun-20 13:33N 49°35' W 000°21'1212.3
2015-Jun-20 12:34N 49°31' W 000°03'8 7.8
2015-Jun-20 11:31N 49°28' E 000°09'0 0.0
2015-Jun-20 10:33N 49°28' E 000°09'0 0.0
2015-Jun-20 09:31N 49°28' E 000°09'0 0.0
2015-Jun-20 08:31N 49°28' E 000°09'0 0.0
2015-Jun-20 07:31N 49°28' E 000°09'0 0.0
2015-Jun-20 06:31N 49°28' E 000°09'0 0.0
2015-Jun-20 05:31N 49°28' E 000°09'0 0.1
2015-Jun-20 04:34N 49°28' E 000°08'9 9.0
2015-Jun-20 03:33N 49°31' W 000°05'8 7.5
2015-Jun-20 02:34N 49°37' W 000°11'1817.9
2015-Jun-20 01:33N 49°55' W 000°11'4515.0
2015-Jun-19 22:33N 50°33' E 000°28'1817.9
2015-Jun-19 21:34N 50°42' E 000°51'2020.1
2015-Jun-19 20:34N 50°54' E 001°17'2121.4
2015-Jun-19 19:34N 51°10' E 001°40'1918.8
2015-Jun-19 18:34N 51°28' E 001°51'1818.3
2015-Jun-19 17:34N 51°45' E 001°44'1313.3
2015-Jun-19 16:33N 51°56' E 001°32'9 8.8
2015-Jun-19 15:32N 51°58' E 001°17'0 0.0
2015-Jun-19 14:32N 51°58' E 001°17'0 0.0
2015-Jun-19 13:32N 51°58' E 001°17'0 0.0
2015-Jun-19 12:33N 51°58' E 001°17'0 0.0
2015-Jun-19 11:33N 51°58' E 001°17'0 0.0
2015-Jun-19 10:33N 51°58' E 001°17'0 0.0
2015-Jun-19 09:31N 51°58' E 001°17'0 0.0
2015-Jun-19 08:31N 51°58' E 001°17'0 0.0
2015-Jun-19 07:33N 51°58' E 001°17'0 0.0
2015-Jun-19 06:33N 51°58' E 001°17'0 0.0
2015-Jun-19 05:33N 51°58' E 001°17'0 0.0
2015-Jun-19 04:33N 51°58' E 001°17'7 6.9
2015-Jun-19 03:33N 51°56' E 001°28'8 8.0
2015-Jun-19 02:34N 51°53' E 001°40'0 0.3
2015-Jun-19 01:32N 51°53' E 001°40'0 0.2
2015-Jun-19 00:32N 51°53' E 001°39'0 0.0
2015-Jun-18 23:32N 51°53' E 001°39'0 0.0
2015-Jun-18 22:32N 51°53' E 001°39'0 0.0
2015-Jun-18 21:32N 51°53' E 001°39'0 0.0
2015-Jun-18 20:32N 51°53' E 001°39'0 0.3
2015-Jun-18 19:32N 51°53' E 001°39'0 0.2
2015-Jun-18 18:32N 51°53' E 001°40'0 0.0
2015-Jun-18 17:32N 51°53' E 001°40'0 0.0
2015-Jun-18 16:32N 51°53' E 001°40'0 0.0
2015-Jun-18 15:32N 51°53' E 001°40'0 0.0
2015-Jun-18 14:32N 51°53' E 001°40'0 0.3
2015-Jun-18 13:32N 51°53' E 001°39'0 0.1
2015-Jun-18 12:32N 51°53' E 001°39'0 0.1
2015-Jun-18 11:34N 51°53' E 001°39'9 8.8
2015-Jun-18 10:34N 51°47' E 001°49'1413.9
2015-Jun-18 09:34N 51°33' E 001°52'1515.1
2015-Jun-18 08:34N 51°22' E 002°09'1716.9
2015-Jun-18 07:34N 51°23' E 002°36'1515.2
2015-Jun-18 06:33N 51°25' E 002°60'1817.7
2015-Jun-18 05:33N 51°25' E 003°28'1110.8
2015-Jun-18 04:33N 51°22' E 003°45'1110.9
2015-Jun-18 03:34N 51°24' E 004°02'9 8.7
2015-Jun-18 02:33N 51°21' E 004°15'1 1.4
2015-Jun-18 01:33N 51°21' E 004°17'0 0.4
2015-Jun-18 00:33N 51°21' E 004°18'2 1.5
2015-Jun-17 23:32N 51°19' E 004°19'0 0.0
2015-Jun-17 22:29N 51°19' E 004°19'0 0.0
2015-Jun-17 21:32N 51°19' E 004°19'0 0.0
2015-Jun-17 20:31N 51°19' E 004°19'0 0.0
2015-Jun-17 19:31N 51°19' E 004°19'0 0.0
2015-Jun-17 18:31N 51°19' E 004°19'0 0.0
2015-Jun-17 17:31N 51°19' E 004°19'0 0.0
2015-Jun-17 16:31N 51°19' E 004°19'0 0.0
2015-Jun-17 15:31N 51°19' E 004°19'0 0.0
2015-Jun-17 14:31N 51°19' E 004°19'0 0.0
2015-Jun-17 13:31N 51°19' E 004°19'0 0.0
2015-Jun-17 12:31N 51°19' E 004°19'0 0.0
2015-Jun-17 11:33N 51°19' E 004°19'0 0.0
2015-Jun-17 10:29N 51°19' E 004°19'0 0.0
2015-Jun-17 09:32N 51°19' E 004°19'0 0.0
2015-Jun-17 08:33N 51°19' E 004°19'0 0.0
2015-Jun-17 07:33N 51°19' E 004°19'0 0.0
2015-Jun-17 06:33N 51°19' E 004°19'0 0.0
2015-Jun-17 05:33N 51°19' E 004°19'0 0.0
2015-Jun-17 04:33N 51°19' E 004°19'0 0.0
2015-Jun-17 03:33N 51°19' E 004°19'0 0.0
2015-Jun-17 02:33N 51°19' E 004°19'0 0.0
2015-Jun-17 01:31N 51°19' E 004°19'0 0.0
2015-Jun-17 00:31N 51°19' E 004°19'0 0.0
2015-Jun-16 23:31N 51°19' E 004°19'0 0.0
2015-Jun-16 22:32N 51°19' E 004°19'0 0.0
2015-Jun-16 21:33N 51°19' E 004°19'0 0.0
2015-Jun-16 20:33N 51°19' E 004°19'2 1.8
2015-Jun-16 19:33N 51°21' E 004°17'0 0.0
2015-Jun-16 18:33N 51°21' E 004°17'1 1.5
2015-Jun-16 17:33N 51°21' E 004°15'7 7.3
2015-Jun-16 16:33N 51°22' E 004°03'7 7.0
2015-Jun-16 15:34N 51°21' E 003°52'1211.7
2015-Jun-16 14:33N 51°26' E 003°35'1211.6
2015-Jun-16 13:33N 51°24' E 003°17'1010.1
2015-Jun-16 12:33N 51°30' E 003°03'1414.2
2015-Jun-16 11:33N 51°43' E 003°13'3 3.2
2015-Jun-16 10:31N 51°46' E 003°11'5 4.4
2015-Jun-16 09:25N 51°50' E 003°16'1516.8
2015-Jun-16 08:31N 52°05' E 003°20'  
Track history (hours):
 
Tides and Currents Weather Stations Pressure Air Temp Water Temp Dewpoint Dewpoint Depression Visibility Wind Speed Wind Dir Waves Ship Positions

MSC Jordan

Last reported at 2015-Jun-26 03:10 UTC. Time now 2015-Jul-04 17:04 UTC.
Position N 27°40' W 015°19'.
Warning: this ship's position is 8 days out of date.

Length 237 m; draft 11.6 m.

Type: Ship. MMSI: 355194000.

Date/timePositionNaut miles runAvg speedWind from/ knotsBaromVisibWave heightAir tempDewpointWater temp
2015-Jun-26 03:10N 27°40' W 015°19'1017.1
2015-Jun-26 02:33N 27°50' W 015°16'1515.1
2015-Jun-26 01:33N 28°04' W 015°20'5 5.4
2015-Jun-26 00:33N 28°08' W 015°25'0 0.0
2015-Jun-25 23:33N 28°08' W 015°25'0 0.0
2015-Jun-25 22:33N 28°08' W 015°25'0 0.0
2015-Jun-25 21:33N 28°08' W 015°25'0 0.0
2015-Jun-25 20:33N 28°08' W 015°25'0 0.0
2015-Jun-25 19:33N 28°08' W 015°25'0 0.0
2015-Jun-25 18:33N 28°08' W 015°25'0 0.0
2015-Jun-25 17:33N 28°08' W 015°25'0 0.0
2015-Jun-25 16:33N 28°08' W 015°25'0 0.0
2015-Jun-25 15:33N 28°08' W 015°25'0 0.0
2015-Jun-25 14:33N 28°08' W 015°25'0 0.0
2015-Jun-25 13:33N 28°08' W 015°25'0 0.0
2015-Jun-25 12:33N 28°08' W 015°25'0 0.0
2015-Jun-25 11:33N 28°08' W 015°25'0 0.0
2015-Jun-25 10:33N 28°08' W 015°25'0 0.0
2015-Jun-25 09:33N 28°08' W 015°25'0 0.0
2015-Jun-25 08:33N 28°08' W 015°25'0 0.0
2015-Jun-25 07:33N 28°08' W 015°25'0 0.0
2015-Jun-25 06:33N 28°08' W 015°25'0 0.1
2015-Jun-25 05:33N 28°08' W 015°25'4 4.2
2015-Jun-25 04:33N 28°08' W 015°20'1514.8
2015-Jun-25 03:33N 28°22' W 015°15'1515.4
2015-Jun-25 02:33N 28°37' W 015°11'1515.2
2015-Jun-25 01:33N 28°51' W 015°06'1515.1
2015-Jun-25 00:33N 29°06' W 015°01'1515.2
2015-Jun-24 23:32N 29°21' W 014°56'1515.2
2015-Jun-24 22:33N 29°35' W 014°52'1515.5
2015-Jun-24 21:33N 29°50' W 014°47'2015.5
2015-Jun-24 20:16N 30°09' W 014°40'72814.6
2015-Jun-22 18:19N 41°49' W 010°31'28813.7
2015-Jun-21 21:21N 46°14' W 007°57'911.7
2015-Jun-21 20:33N 46°22' W 007°51'1211.7
2015-Jun-21 19:33N 46°33' W 007°42'1211.9
2015-Jun-21 18:33N 46°43' W 007°34'1212.1
2015-Jun-21 17:33N 46°54' W 007°26'4113.6
2015-Jun-21 14:33N 47°30' W 006°57'3615.8
2015-Jun-21 12:17N 48°00' W 006°30'23911.4
2015-Jun-20 15:24N 49°46' W 001°04'1416.8
2015-Jun-20 14:33N 49°40' W 000°43'1615.6
2015-Jun-20 13:33N 49°35' W 000°21'1212.3
2015-Jun-20 12:34N 49°31' W 000°03'8 7.8
2015-Jun-20 11:31N 49°28' E 000°09'0 0.0
2015-Jun-20 10:33N 49°28' E 000°09'0 0.0
2015-Jun-20 09:31N 49°28' E 000°09'0 0.0
2015-Jun-20 08:31N 49°28' E 000°09'0 0.0
2015-Jun-20 07:31N 49°28' E 000°09'0 0.0
2015-Jun-20 06:31N 49°28' E 000°09'0 0.0
2015-Jun-20 05:31N 49°28' E 000°09'0 0.1
2015-Jun-20 04:34N 49°28' E 000°08'9 9.0
2015-Jun-20 03:33N 49°31' W 000°05'8 7.5
2015-Jun-20 02:34N 49°37' W 000°11'1817.9
2015-Jun-20 01:33N 49°55' W 000°11'4515.0
2015-Jun-19 22:33N 50°33' E 000°28'1817.9
2015-Jun-19 21:34N 50°42' E 000°51'2020.1
2015-Jun-19 20:34N 50°54' E 001°17'2121.4
2015-Jun-19 19:34N 51°10' E 001°40'1918.8
2015-Jun-19 18:34N 51°28' E 001°51'1818.3
2015-Jun-19 17:34N 51°45' E 001°44'1313.3
2015-Jun-19 16:33N 51°56' E 001°32'9 8.8
2015-Jun-19 15:32N 51°58' E 001°17'0 0.0
2015-Jun-19 14:32N 51°58' E 001°17'0 0.0
2015-Jun-19 13:32N 51°58' E 001°17'0 0.0
2015-Jun-19 12:33N 51°58' E 001°17'0 0.0
2015-Jun-19 11:33N 51°58' E 001°17'0 0.0
2015-Jun-19 10:33N 51°58' E 001°17'0 0.0
2015-Jun-19 09:31N 51°58' E 001°17'0 0.0
2015-Jun-19 08:31N 51°58' E 001°17'0 0.0
2015-Jun-19 07:33N 51°58' E 001°17'0 0.0
2015-Jun-19 06:33N 51°58' E 001°17'0 0.0
2015-Jun-19 05:33N 51°58' E 001°17'0 0.0
2015-Jun-19 04:33N 51°58' E 001°17'7 6.9
2015-Jun-19 03:33N 51°56' E 001°28'8 8.0
2015-Jun-19 02:34N 51°53' E 001°40'0 0.3
2015-Jun-19 01:32N 51°53' E 001°40'0 0.2
2015-Jun-19 00:32N 51°53' E 001°39'0 0.0
2015-Jun-18 23:32N 51°53' E 001°39'0 0.0
2015-Jun-18 22:32N 51°53' E 001°39'0 0.0
2015-Jun-18 21:32N 51°53' E 001°39'0 0.0
2015-Jun-18 20:32N 51°53' E 001°39'0 0.3
2015-Jun-18 19:32N 51°53' E 001°39'0 0.2
2015-Jun-18 18:32N 51°53' E 001°40'0 0.0
2015-Jun-18 17:32N 51°53' E 001°40'0 0.0
2015-Jun-18 16:32N 51°53' E 001°40'0 0.0
2015-Jun-18 15:32N 51°53' E 001°40'0 0.0
2015-Jun-18 14:32N 51°53' E 001°40'0 0.3
2015-Jun-18 13:32N 51°53' E 001°39'0 0.1
2015-Jun-18 12:32N 51°53' E 001°39'0 0.1
2015-Jun-18 11:34N 51°53' E 001°39'9 8.8
2015-Jun-18 10:34N 51°47' E 001°49'1413.9
2015-Jun-18 09:34N 51°33' E 001°52'1515.1
2015-Jun-18 08:34N 51°22' E 002°09'1716.9
2015-Jun-18 07:34N 51°23' E 002°36'1515.2
2015-Jun-18 06:33N 51°25' E 002°60'1817.7
2015-Jun-18 05:33N 51°25' E 003°28'1110.8
2015-Jun-18 04:33N 51°22' E 003°45'1110.9
2015-Jun-18 03:34N 51°24' E 004°02'9 8.7
2015-Jun-18 02:33N 51°21' E 004°15'1 1.4
2015-Jun-18 01:33N 51°21' E 004°17'0 0.4
2015-Jun-18 00:33N 51°21' E 004°18'2 1.5
2015-Jun-17 23:32N 51°19' E 004°19'0 0.0
2015-Jun-17 22:29N 51°19' E 004°19'0 0.0
2015-Jun-17 21:32N 51°19' E 004°19'0 0.0
2015-Jun-17 20:31N 51°19' E 004°19'0 0.0
2015-Jun-17 19:31N 51°19' E 004°19'0 0.0
2015-Jun-17 18:31N 51°19' E 004°19'0 0.0
2015-Jun-17 17:31N 51°19' E 004°19'0 0.0
2015-Jun-17 16:31N 51°19' E 004°19'0 0.0
2015-Jun-17 15:31N 51°19' E 004°19'0 0.0
2015-Jun-17 14:31N 51°19' E 004°19'0 0.0
2015-Jun-17 13:31N 51°19' E 004°19'0 0.0
2015-Jun-17 12:31N 51°19' E 004°19'0 0.0
2015-Jun-17 11:33N 51°19' E 004°19'0 0.0
2015-Jun-17 10:29N 51°19' E 004°19'0 0.0
2015-Jun-17 09:32N 51°19' E 004°19'0 0.0
2015-Jun-17 08:33N 51°19' E 004°19'0 0.0
2015-Jun-17 07:33N 51°19' E 004°19'0 0.0
2015-Jun-17 06:33N 51°19' E 004°19'0 0.0
2015-Jun-17 05:33N 51°19' E 004°19'0 0.0
2015-Jun-17 04:33N 51°19' E 004°19'0 0.0
2015-Jun-17 03:33N 51°19' E 004°19'0 0.0
2015-Jun-17 02:33N 51°19' E 004°19'0 0.0
2015-Jun-17 01:31N 51°19' E 004°19'0 0.0
2015-Jun-17 00:31N 51°19' E 004°19'0 0.0
2015-Jun-16 23:31N 51°19' E 004°19'0 0.0
2015-Jun-16 22:32N 51°19' E 004°19'0 0.0
2015-Jun-16 21:33N 51°19' E 004°19'0 0.0
2015-Jun-16 20:33N 51°19' E 004°19'2 1.8
2015-Jun-16 19:33N 51°21' E 004°17'0 0.0
2015-Jun-16 18:33N 51°21' E 004°17'1 1.5
2015-Jun-16 17:33N 51°21' E 004°15'7 7.3
2015-Jun-16 16:33N 51°22' E 004°03'7 7.0
2015-Jun-16 15:34N 51°21' E 003°52'1211.7
2015-Jun-16 14:33N 51°26' E 003°35'1211.6
2015-Jun-16 13:33N 51°24' E 003°17'1010.1
2015-Jun-16 12:33N 51°30' E 003°03'1414.2
2015-Jun-16 11:33N 51°43' E 003°13'3 3.2
2015-Jun-16 10:31N 51°46' E 003°11'5 4.4
2015-Jun-16 09:25N 51°50' E 003°16'1516.8
2015-Jun-16 08:31N 52°05' E 003°20'  

Dump ship's entire track history